createdAt,value
2023-01-11T00:00:28.766Z,99918.28
2023-01-11T00:01:10.495Z,99914.34
2023-01-11T00:01:53.134Z,99913.22
2023-01-11T00:02:34.794Z,99918.00
2023-01-11T00:03:17.280Z,99903.31
2023-01-11T00:03:59.191Z,99907.13
2023-01-11T00:04:41.431Z,99883.69
2023-01-11T00:05:23.368Z,99884.84
2023-01-11T00:06:06.654Z,99903.97
2023-01-11T00:06:48.317Z,99894.91
2023-01-11T00:07:30.098Z,99896.06
2023-01-11T00:08:12.810Z,99885.00
2023-01-11T00:08:56.104Z,99899.31
2023-01-11T00:09:37.763Z,99899.47
2023-01-11T00:10:20.163Z,99893.31
2023-01-11T00:11:02.279Z,99903.16
2023-01-11T00:11:43.869Z,99900.50
2023-01-11T00:12:25.507Z,99883.94
2023-01-11T00:13:07.442Z,99894.31
2023-01-11T00:13:49.072Z,99900.22
2023-01-11T00:14:30.756Z,99897.22
2023-01-11T00:15:13.392Z,99896.72
2023-01-11T00:15:55.108Z,99868.94
2023-01-11T00:16:36.853Z,99892.91
2023-01-11T00:17:18.497Z,99801.22
2023-01-11T00:18:00.165Z,99891.25
2023-01-11T00:18:47.283Z,99890.13
2023-01-11T00:19:28.879Z,99869.50
2023-01-11T00:20:10.690Z,99877.97
2023-01-11T00:20:52.330Z,99866.13
2023-01-11T00:21:33.970Z,99878.66
2023-01-11T00:22:15.539Z,99864.66
2023-01-11T00:22:57.656Z,99870.31
2023-01-11T00:23:39.258Z,99860.41
2023-01-11T00:24:20.950Z,99859.25
2023-01-11T00:25:02.901Z,99855.09
2023-01-11T00:25:44.651Z,99885.59
2023-01-11T00:26:26.327Z,99846.44
2023-01-11T00:27:07.889Z,99877.97
2023-01-11T00:27:49.699Z,99846.75
2023-01-11T00:28:31.543Z,99852.84
2023-01-11T00:29:13.317Z,99874.16
2023-01-11T00:29:54.961Z,99877.28
2023-01-11T00:30:37.087Z,99856.03
2023-01-11T00:31:18.772Z,99845.81
2023-01-11T00:32:00.424Z,99855.91
2023-01-11T00:32:42.437Z,99858.03
2023-01-11T00:33:24.120Z,99884.75
2023-01-11T00:34:05.786Z,99881.31
2023-01-11T00:34:47.379Z,99883.94
2023-01-11T00:35:30.303Z,99886.75
2023-01-11T00:36:11.986Z,99877.13
2023-01-11T00:36:53.540Z,99852.38
2023-01-11T00:37:35.449Z,99870.69
2023-01-11T00:38:37.091Z,99882.56
2023-01-11T00:39:18.721Z,99806.75
2023-01-11T00:40:00.443Z,99857.28
2023-01-11T00:40:42.020Z,99874.78
2023-01-11T00:41:42.671Z,99868.84
2023-01-11T00:42:42.843Z,99871.28
2023-01-11T00:43:43.108Z,99856.88
2023-01-11T00:44:43.425Z,99864.34
2023-01-11T00:45:43.769Z,99842.88
2023-01-11T00:46:44.030Z,99858.13
2023-01-11T00:47:44.097Z,99790.09
2023-01-11T00:48:25.709Z,99851.06
2023-01-11T00:49:07.325Z,99838.44
2023-01-11T00:49:48.937Z,99838.97
2023-01-11T00:50:33.345Z,99827.31
2023-01-11T00:51:14.992Z,99827.34
2023-01-11T00:51:56.567Z,99819.94
2023-01-11T00:52:38.172Z,99826.34
2023-01-11T00:53:19.875Z,99827.69
2023-01-11T00:54:01.521Z,99843.81
2023-01-11T00:54:43.186Z,99845.44
2023-01-11T00:55:26.159Z,99838.31
2023-01-11T00:56:07.851Z,99813.53
2023-01-11T00:56:49.500Z,99831.66
2023-01-11T00:57:31.172Z,99814.19
2023-01-11T00:58:12.805Z,99824.06
2023-01-11T00:58:54.418Z,99824.56
2023-01-11T00:59:39.307Z,99820.13
2023-01-11T01:00:21.974Z,99816.81
2023-01-11T01:01:07.668Z,99822.59
2023-01-11T01:01:49.292Z,99735.63
2023-01-11T01:02:32.447Z,99823.44
2023-01-11T01:03:14.176Z,99808.59
2023-01-11T01:03:55.815Z,99822.41
2023-01-11T01:04:37.954Z,99808.25
2023-01-11T01:05:20.376Z,99814.25
2023-01-11T01:06:02.023Z,99815.56
2023-01-11T01:06:43.856Z,99811.97
2023-01-11T01:07:25.488Z,99814.91
2023-01-11T01:08:07.239Z,99820.16
2023-01-11T01:08:48.954Z,99826.59
2023-01-11T01:09:30.924Z,99796.72
2023-01-11T01:10:14.207Z,99803.50
2023-01-11T01:10:55.796Z,99800.34
2023-01-11T01:11:37.416Z,99818.81
2023-01-11T01:12:37.622Z,99820.72
2023-01-11T01:13:37.958Z,99790.09
2023-01-11T01:14:33.365Z,99815.00
2023-01-11T01:15:15.110Z,99795.03
2023-01-11T01:15:58.753Z,99814.50
2023-01-11T01:16:42.196Z,99791.06
2023-01-11T01:17:23.772Z,99819.78
2023-01-11T01:18:05.487Z,99805.09
2023-01-11T01:18:47.205Z,99784.00
2023-01-11T01:19:30.990Z,99809.75
2023-01-11T01:20:13.154Z,99822.63
2023-01-11T01:20:54.760Z,99788.63
2023-01-11T01:21:37.317Z,99822.16
2023-01-11T01:22:19.181Z,99814.56
2023-01-11T01:23:00.853Z,99822.16
2023-01-11T01:23:42.508Z,99807.50
2023-01-11T01:24:25.301Z,99809.97
2023-01-11T01:25:07.312Z,99808.19
2023-01-11T01:25:48.947Z,99805.41
2023-01-11T01:26:30.589Z,99757.94
2023-01-11T01:27:16.719Z,99813.91
2023-01-11T01:27:58.291Z,99811.28
2023-01-11T01:28:39.931Z,99803.88
2023-01-11T01:29:21.569Z,99802.22
2023-01-11T01:30:05.012Z,99809.16
2023-01-11T01:30:50.824Z,99785.56
2023-01-11T01:31:32.664Z,99813.44
2023-01-11T01:32:14.322Z,99805.00
2023-01-11T01:32:55.963Z,99798.41
2023-01-11T01:33:37.635Z,99780.09
2023-01-11T01:34:19.215Z,99798.41
2023-01-11T01:35:00.901Z,99801.19
2023-01-11T01:35:42.524Z,99795.25
2023-01-11T01:36:24.722Z,99797.44
2023-01-11T01:37:07.738Z,99790.00
2023-01-11T01:37:49.541Z,99774.38
2023-01-11T01:38:31.608Z,99782.94
2023-01-11T01:39:13.403Z,99775.72
2023-01-11T01:39:54.957Z,99774.72
2023-01-11T01:40:44.307Z,99774.06
2023-01-11T01:41:25.958Z,99781.16
2023-01-11T01:42:19.708Z,99787.94
2023-01-11T01:43:01.298Z,99787.59
2023-01-11T01:43:47.517Z,99768.31
2023-01-11T01:44:51.145Z,99792.22
2023-01-11T01:45:32.796Z,99769.28
2023-01-11T01:46:16.130Z,99791.72
2023-01-11T01:46:57.726Z,99795.66
2023-01-11T01:47:45.445Z,99795.97
2023-01-11T01:48:27.920Z,99787.41
2023-01-11T01:49:13.966Z,99790.38
2023-01-11T01:49:59.001Z,99785.75
2023-01-11T01:50:53.327Z,99778.50
2023-01-11T01:51:42.095Z,99761.34
2023-01-11T01:52:29.001Z,99789.88
2023-01-11T01:53:19.069Z,99783.31
2023-01-11T01:54:06.681Z,99787.41
2023-01-11T01:54:49.408Z,99772.28
2023-01-11T01:55:37.491Z,99788.09
2023-01-11T01:56:29.895Z,99794.84
2023-01-11T01:57:33.651Z,99788.59
2023-01-11T01:58:20.538Z,99770.44
2023-01-11T01:59:12.771Z,99780.69
2023-01-11T02:00:00.944Z,99784.13
2023-01-11T02:00:45.718Z,99781.66
2023-01-11T02:01:46.370Z,99766.66
2023-01-11T02:02:28.186Z,99778.88
2023-01-11T02:03:14.025Z,99774.72
2023-01-11T02:03:55.613Z,99785.78
2023-01-11T02:04:41.634Z,99757.41
2023-01-11T02:05:23.347Z,99776.88
2023-01-11T02:06:05.353Z,99778.53
2023-01-11T02:06:47.090Z,99758.44
2023-01-11T02:07:35.025Z,99770.13
2023-01-11T02:08:29.198Z,99750.50
2023-01-11T02:09:21.970Z,99751.19
2023-01-11T02:10:15.257Z,99789.25
2023-01-11T02:10:57.403Z,99783.16
2023-01-11T02:11:43.320Z,99757.59
2023-01-11T02:12:30.117Z,99779.53
2023-01-11T02:13:14.385Z,99767.34
2023-01-11T02:13:58.388Z,99783.66
2023-01-11T02:14:41.403Z,99776.88
2023-01-11T02:15:23.922Z,99770.94
2023-01-11T02:16:12.018Z,99783.81
2023-01-11T02:16:53.799Z,99761.38
2023-01-11T02:17:35.473Z,99762.06
2023-01-11T02:18:19.541Z,99774.41
2023-01-11T02:19:01.365Z,99786.78
2023-01-11T02:19:55.037Z,99779.53
2023-01-11T02:20:51.543Z,99779.84
2023-01-11T02:22:12.684Z,99780.16
2023-01-11T02:23:16.088Z,99779.00
2023-01-11T02:24:28.803Z,99779.50
2023-01-11T02:25:48.224Z,99785.28
2023-01-11T02:26:41.759Z,99776.22
2023-01-11T02:27:56.190Z,99723.47
2023-01-11T02:28:54.005Z,99777.53
2023-01-11T02:29:54.066Z,99779.50
2023-01-11T02:31:03.244Z,99773.41
2023-01-11T02:31:59.923Z,99776.72
2023-01-11T02:32:41.448Z,99766.81
2023-01-11T02:33:27.257Z,99761.56
2023-01-11T02:34:24.113Z,99763.84
2023-01-11T02:35:26.479Z,99756.59
2023-01-11T02:36:11.853Z,99759.56
2023-01-11T02:37:05.483Z,99757.09
2023-01-11T02:38:03.959Z,99696.47
2023-01-11T02:39:15.141Z,99764.19
2023-01-11T02:40:00.069Z,99765.66
2023-01-11T02:40:47.880Z,99764.66
2023-01-11T02:42:04.041Z,99757.59
2023-01-11T02:43:21.528Z,99737.47
2023-01-11T02:44:31.496Z,99747.69
2023-01-11T02:45:36.895Z,99739.63
2023-01-11T02:46:33.658Z,99754.47
2023-01-11T02:47:27.146Z,99724.13
2023-01-11T02:48:19.322Z,99748.34
2023-01-11T02:49:16.641Z,99738.13
2023-01-11T02:50:19.204Z,99740.28
2023-01-11T02:51:15.835Z,99745.56
2023-01-11T02:52:08.338Z,99691.81
2023-01-11T02:53:03.220Z,99745.22
2023-01-11T02:53:50.656Z,99744.22
2023-01-11T02:54:33.918Z,99741.56
2023-01-11T02:55:18.422Z,99741.94
2023-01-11T02:56:06.085Z,99741.94
2023-01-11T02:56:49.998Z,99747.38
2023-01-11T02:57:32.679Z,99745.56
2023-01-11T02:58:16.669Z,99739.28
2023-01-11T02:58:58.769Z,99735.50
2023-01-11T02:59:41.943Z,99737.63
2023-01-11T03:00:24.750Z,99735.47
2023-01-11T03:01:07.005Z,99738.78
2023-01-11T03:01:55.500Z,99739.25
2023-01-11T03:02:37.317Z,99731.03
2023-01-11T03:03:24.920Z,99730.69
2023-01-11T03:04:42.175Z,99733.81
2023-01-11T03:05:23.757Z,99730.34
2023-01-11T03:06:15.469Z,99717.13
2023-01-11T03:07:07.378Z,99730.34
2023-01-11T03:07:57.930Z,99730.97
2023-01-11T03:08:58.202Z,99729.81
2023-01-11T03:10:08.671Z,99725.34
2023-01-11T03:10:57.496Z,99719.41
2023-01-11T03:12:19.506Z,99716.78
2023-01-11T03:13:22.564Z,99725.34
2023-01-11T03:14:09.595Z,99709.56
2023-01-11T03:14:58.972Z,99709.84
2023-01-11T03:15:40.514Z,99721.06
2023-01-11T03:16:37.406Z,99711.84
2023-01-11T03:17:34.104Z,99718.28
2023-01-11T03:18:44.882Z,99722.75
2023-01-11T03:19:36.618Z,99723.41
2023-01-11T03:20:27.547Z,99683.53
2023-01-11T03:21:25.317Z,99709.88
2023-01-11T03:22:28.624Z,99719.78
2023-01-11T03:23:31.010Z,99725.53
2023-01-11T03:24:31.807Z,99710.00
2023-01-11T03:25:28.987Z,99707.53
2023-01-11T03:26:35.749Z,99703.91
2023-01-11T03:27:39.340Z,99706.88
2023-01-11T03:28:39.268Z,99705.22
2023-01-11T03:29:52.034Z,99708.19
2023-01-11T03:30:43.568Z,99702.94
2023-01-11T03:31:36.937Z,99700.66
2023-01-11T03:32:26.216Z,99700.69
2023-01-11T03:33:16.523Z,99705.00
2023-01-11T03:34:10.397Z,99694.59
2023-01-11T03:35:10.204Z,99696.09
2023-01-11T03:36:01.204Z,99679.94
2023-01-11T03:36:58.476Z,99689.50
2023-01-11T03:37:54.796Z,99695.63
2023-01-11T03:38:43.303Z,99690.97
2023-01-11T03:39:24.865Z,99699.88
2023-01-11T03:40:18.959Z,99692.47
2023-01-11T03:41:08.059Z,99690.34
2023-01-11T03:41:52.880Z,99679.63
2023-01-11T03:42:57.406Z,99694.47
2023-01-11T03:43:43.987Z,99674.72
2023-01-11T03:44:29.494Z,99694.97
2023-01-11T03:45:11.243Z,99678.19
2023-01-11T03:45:58.555Z,99690.00
2023-01-11T03:46:47.041Z,99692.50
2023-01-11T03:47:30.460Z,99695.44
2023-01-11T03:48:16.759Z,99683.28
2023-01-11T03:49:15.819Z,99677.03
2023-01-11T03:50:03.536Z,99689.69
2023-01-11T03:50:48.004Z,99688.88
2023-01-11T03:51:35.402Z,99673.53
2023-01-11T03:52:25.584Z,99678.69
2023-01-11T03:53:09.226Z,99667.44
2023-01-11T03:53:52.726Z,99680.66
2023-01-11T03:54:34.602Z,99671.56
2023-01-11T03:55:17.525Z,99653.81
2023-01-11T03:56:01.359Z,99670.78
2023-01-11T03:56:53.830Z,99677.34
2023-01-11T03:57:40.961Z,99676.66
2023-01-11T03:58:24.923Z,99673.53
2023-01-11T03:59:06.550Z,99658.91
2023-01-11T03:59:49.904Z,99668.25
2023-01-11T04:00:33.145Z,99669.91
2023-01-11T04:01:14.857Z,99673.88
2023-01-11T04:01:56.893Z,99669.94
2023-01-11T04:02:41.914Z,99666.63
2023-01-11T04:03:26.873Z,99673.56
2023-01-11T04:04:08.670Z,99656.25
2023-01-11T04:04:50.640Z,99663.84
2023-01-11T04:05:37.190Z,99673.22
2023-01-11T04:06:19.328Z,99664.81
2023-01-11T04:07:00.941Z,99668.44
2023-01-11T04:07:42.613Z,99657.88
2023-01-11T04:08:24.248Z,99671.53
2023-01-11T04:09:06.526Z,99652.91
2023-01-11T04:09:48.144Z,99638.09
2023-01-11T04:10:29.774Z,99668.06
2023-01-11T04:11:11.371Z,99653.25
2023-01-11T04:11:52.998Z,99666.91
2023-01-11T04:12:34.584Z,99603.50
2023-01-11T04:13:16.226Z,99674.16
2023-01-11T04:13:58.165Z,99677.31
2023-01-11T04:14:39.771Z,99676.66
2023-01-11T04:15:21.377Z,99659.53
2023-01-11T04:16:03.086Z,99678.63
2023-01-11T04:16:44.725Z,99670.06
2023-01-11T04:17:26.367Z,99646.34
2023-01-11T04:18:08.047Z,99668.72
2023-01-11T04:18:49.712Z,99661.19
2023-01-11T04:19:33.914Z,99649.47
2023-01-11T04:20:15.914Z,99661.03
2023-01-11T04:20:57.559Z,99667.94
2023-01-11T04:21:39.149Z,99671.22
2023-01-11T04:22:20.764Z,99658.53
2023-01-11T04:23:03.405Z,99662.66
2023-01-11T04:23:45.011Z,99672.69
2023-01-11T04:24:26.669Z,99665.44
2023-01-11T04:25:09.724Z,99651.75
2023-01-11T04:25:51.563Z,99670.22
2023-01-11T04:26:33.272Z,99656.22
2023-01-11T04:27:15.014Z,99663.75
2023-01-11T04:27:56.796Z,99662.63
2023-01-11T04:28:38.428Z,99654.19
2023-01-11T04:29:20.009Z,99642.34
2023-01-11T04:30:01.737Z,99650.06
2023-01-11T04:30:43.314Z,99656.44
2023-01-11T04:31:25.188Z,99652.66
2023-01-11T04:32:06.850Z,99653.09
2023-01-11T04:32:49.177Z,99654.56
2023-01-11T04:33:30.794Z,99660.34
2023-01-11T04:34:12.465Z,99654.41
2023-01-11T04:34:54.100Z,99621.31
2023-01-11T04:35:35.731Z,99649.97
2023-01-11T04:36:17.383Z,99645.19
2023-01-11T04:36:59.018Z,99617.69
2023-01-11T04:37:40.638Z,99651.13
2023-01-11T04:38:25.134Z,99636.31
2023-01-11T04:39:10.455Z,99629.59
2023-01-11T04:39:52.088Z,99634.22
2023-01-11T04:40:33.697Z,99654.13
2023-01-11T04:41:34.067Z,99649.34
2023-01-11T04:42:18.316Z,99650.50
2023-01-11T04:43:02.226Z,99645.22
2023-01-11T04:43:43.853Z,99640.97
2023-01-11T04:44:25.502Z,99620.38
2023-01-11T04:45:07.612Z,99627.78
2023-01-11T04:45:49.605Z,99637.75
2023-01-11T04:46:31.267Z,99642.84
2023-01-11T04:47:12.860Z,99642.50
2023-01-11T04:47:56.483Z,99640.50
2023-01-11T04:48:39.589Z,99625.22
2023-01-11T04:49:21.161Z,99588.19
2023-01-11T04:50:05.258Z,99628.13
2023-01-11T04:50:48.999Z,99636.19
2023-01-11T04:51:30.716Z,99606.34
2023-01-11T04:52:14.214Z,99629.09
2023-01-11T04:52:58.316Z,99625.44
2023-01-11T04:53:39.924Z,99628.09
2023-01-11T04:54:21.655Z,99619.69
2023-01-11T04:55:03.603Z,99627.28
2023-01-11T04:55:45.193Z,99627.47
2023-01-11T04:56:26.786Z,99629.38
2023-01-11T04:57:12.312Z,99625.91
2023-01-11T04:57:53.915Z,99597.97
2023-01-11T04:58:38.077Z,99629.38
2023-01-11T04:59:19.926Z,99629.38
2023-01-11T05:00:01.541Z,99603.88
2023-01-11T05:00:43.135Z,99607.81
2023-01-11T05:01:24.785Z,99627.59
2023-01-11T05:02:06.487Z,99625.94
2023-01-11T05:02:48.035Z,99626.28
2023-01-11T05:03:31.867Z,99623.47
2023-01-11T05:04:13.730Z,99619.81
2023-01-11T05:04:55.360Z,99622.63
2023-01-11T05:05:36.962Z,99620.66
2023-01-11T05:06:24.656Z,99612.72
2023-01-11T05:07:07.940Z,99583.91
2023-01-11T05:07:49.553Z,99609.09
2023-01-11T05:08:31.381Z,99612.56
2023-01-11T05:09:17.671Z,99614.31
2023-01-11T05:09:59.435Z,99618.59
2023-01-11T05:10:41.056Z,99606.91
2023-01-11T05:11:22.874Z,99614.31
2023-01-11T05:12:04.570Z,99614.31
2023-01-11T05:12:46.912Z,99610.78
2023-01-11T05:13:45.021Z,99620.16
2023-01-11T05:14:26.723Z,99621.19
2023-01-11T05:15:09.186Z,99619.38
2023-01-11T05:15:50.805Z,99622.91
2023-01-11T05:16:33.166Z,99590.50
2023-01-11T05:17:15.893Z,99621.94
2023-01-11T05:17:57.449Z,99620.09
2023-01-11T05:18:43.672Z,99620.09
2023-01-11T05:19:25.437Z,99621.94
2023-01-11T05:20:07.639Z,99619.59
2023-01-11T05:20:49.377Z,99616.63
2023-01-11T05:21:34.601Z,99615.47
2023-01-11T05:22:16.219Z,99614.28
2023-01-11T05:22:57.842Z,99600.31
2023-01-11T05:23:40.409Z,99608.81
2023-01-11T05:24:21.961Z,99512.28
2023-01-11T05:25:03.864Z,99603.72
2023-01-11T05:25:46.482Z,99605.03
2023-01-11T05:26:31.456Z,99608.31
2023-01-11T05:27:14.262Z,99569.63
2023-01-11T05:27:55.851Z,99609.78
2023-01-11T05:28:37.450Z,99602.03
2023-01-11T05:29:21.056Z,99606.16
2023-01-11T05:30:02.708Z,99582.16
2023-01-11T05:30:50.245Z,99592.16
2023-01-11T05:31:33.695Z,99604.16
2023-01-11T05:32:15.288Z,99601.72
2023-01-11T05:32:56.929Z,99598.06
2023-01-11T05:33:38.675Z,99600.88
2023-01-11T05:34:20.352Z,99599.06
2023-01-11T05:35:01.967Z,99596.28
2023-01-11T05:35:43.573Z,99599.41
2023-01-11T05:36:26.579Z,99573.91
2023-01-11T05:37:08.194Z,99599.56
2023-01-11T05:37:49.889Z,99554.66
2023-01-11T05:38:31.883Z,99586.72
2023-01-11T05:39:14.640Z,99571.75
2023-01-11T05:39:56.241Z,99572.84
2023-01-11T05:40:38.574Z,99584.56
2023-01-11T05:41:23.830Z,99593.78
2023-01-11T05:42:05.539Z,99582.91
2023-01-11T05:42:47.343Z,99585.56
2023-01-11T05:43:30.234Z,99582.44
2023-01-11T05:44:31.853Z,99578.69
2023-01-11T05:45:32.213Z,99571.97
2023-01-11T05:46:13.905Z,99578.53
2023-01-11T05:46:55.566Z,99565.56
2023-01-11T05:47:37.223Z,99582.00
2023-01-11T05:48:19.069Z,99582.81
2023-01-11T05:49:01.464Z,99576.72
2023-01-11T05:49:43.085Z,99568.69
2023-01-11T05:50:25.421Z,99570.31
2023-01-11T05:51:07.013Z,99569.84
2023-01-11T05:51:48.677Z,99576.59
2023-01-11T05:52:30.321Z,99546.88
2023-01-11T05:53:11.915Z,99565.78
2023-01-11T05:53:53.520Z,99564.63
2023-01-11T05:54:35.172Z,99578.44
2023-01-11T05:55:17.044Z,99573.97
2023-01-11T05:55:58.843Z,99568.75
2023-01-11T05:56:42.365Z,99573.00
2023-01-11T05:57:23.992Z,99572.66
2023-01-11T05:58:06.718Z,99554.06
2023-01-11T05:58:50.026Z,99575.94
2023-01-11T05:59:32.287Z,99556.16
2023-01-11T06:00:14.542Z,99574.63
2023-01-11T06:00:57.085Z,99548.28
2023-01-11T06:01:38.865Z,99512.59
2023-01-11T06:02:20.559Z,99565.38
2023-01-11T06:03:02.495Z,99568.34
2023-01-11T06:03:45.358Z,99534.16
2023-01-11T06:04:27.496Z,99571.59
2023-01-11T06:05:09.337Z,99577.72
2023-01-11T06:05:51.570Z,99556.16
2023-01-11T06:06:33.691Z,99564.06
2023-01-11T06:07:17.884Z,99568.81
2023-01-11T06:07:59.491Z,99571.09
2023-01-11T06:08:41.371Z,99576.22
2023-01-11T06:09:22.970Z,99566.00
2023-01-11T06:10:04.915Z,99569.63
2023-01-11T06:10:54.291Z,99565.47
2023-01-11T06:11:35.880Z,99543.94
2023-01-11T06:12:17.527Z,99557.41
2023-01-11T06:13:17.373Z,99561.03
2023-01-11T06:13:59.003Z,99537.66
2023-01-11T06:14:40.601Z,99570.69
2023-01-11T06:15:22.207Z,99560.84
2023-01-11T06:16:06.709Z,99570.53
2023-01-11T06:16:48.375Z,99555.09
2023-01-11T06:17:29.946Z,99566.25
2023-01-11T06:18:11.712Z,99575.97
2023-01-11T06:18:53.636Z,99568.22
2023-01-11T06:19:35.283Z,99549.81
2023-01-11T06:20:16.997Z,99530.09
2023-01-11T06:20:59.016Z,99561.47
2023-01-11T06:21:40.621Z,99557.38
2023-01-11T06:22:22.193Z,99563.66
2023-01-11T06:23:04.144Z,99558.06
2023-01-11T06:23:47.910Z,99542.94
2023-01-11T06:24:29.566Z,99554.78
2023-01-11T06:25:11.142Z,99556.25
2023-01-11T06:25:52.733Z,99554.59
2023-01-11T06:26:34.340Z,99547.22
2023-01-11T06:27:17.735Z,99545.91
2023-01-11T06:27:59.827Z,99566.00
2023-01-11T06:28:42.796Z,99557.06
2023-01-11T06:29:24.364Z,99552.97
2023-01-11T06:30:06.647Z,99566.31
2023-01-11T06:30:55.680Z,99559.88
2023-01-11T06:31:37.245Z,99565.47
2023-01-11T06:32:18.809Z,99559.53
2023-01-11T06:33:06.759Z,99546.91
2023-01-11T06:33:48.430Z,99549.22
2023-01-11T06:34:30.071Z,99519.59
2023-01-11T06:35:12.262Z,99562.69
2023-01-11T06:35:54.344Z,99563.06
2023-01-11T06:36:35.993Z,99556.81
2023-01-11T06:37:17.656Z,99554.19
2023-01-11T06:37:59.260Z,99564.41
2023-01-11T06:38:41.451Z,99556.47
2023-01-11T06:39:23.086Z,99559.94
2023-01-11T06:40:05.172Z,99565.38
2023-01-11T06:40:58.385Z,99560.44
2023-01-11T06:41:40.059Z,99546.31
2023-01-11T06:42:21.689Z,99545.66
2023-01-11T06:43:03.548Z,99531.22
2023-01-11T06:43:46.416Z,99554.41
2023-01-11T06:44:28.175Z,99555.22
2023-01-11T06:45:10.521Z,99546.47
2023-01-11T06:45:52.806Z,99533.19
2023-01-11T06:46:34.537Z,99542.84
2023-01-11T06:47:16.260Z,99546.66
2023-01-11T06:47:58.647Z,99548.94
2023-01-11T06:48:40.344Z,99544.00
2023-01-11T06:49:22.013Z,99553.41
2023-01-11T06:50:04.273Z,99542.84
2023-01-11T06:50:51.198Z,99548.94
2023-01-11T06:51:32.802Z,99540.03
2023-01-11T06:52:14.529Z,99528.88
2023-01-11T06:52:58.222Z,99537.41
2023-01-11T06:53:43.897Z,99538.50
2023-01-11T06:54:25.786Z,99520.44
2023-01-11T06:55:07.863Z,99529.94
2023-01-11T06:55:51.125Z,99533.72
2023-01-11T06:56:32.749Z,99534.53
2023-01-11T06:57:16.939Z,99537.19
2023-01-11T06:57:58.645Z,99531.09
2023-01-11T06:58:40.781Z,99533.72
2023-01-11T06:59:22.520Z,99533.88
2023-01-11T07:00:04.475Z,99531.13
2023-01-11T07:00:46.535Z,99530.75
2023-01-11T07:01:30.462Z,99525.06
2023-01-11T07:02:12.254Z,99523.72
2023-01-11T07:02:53.870Z,99526.25
2023-01-11T07:03:35.604Z,99469.22
2023-01-11T07:04:18.638Z,99518.34
2023-01-11T07:05:00.277Z,99511.75
2023-01-11T07:05:44.915Z,99499.63
2023-01-11T07:06:27.713Z,99516.53
2023-01-11T07:07:09.430Z,99492.69
2023-01-11T07:07:51.022Z,99511.75
2023-01-11T07:08:32.718Z,99515.53
2023-01-11T07:09:14.524Z,99507.16
2023-01-11T07:09:56.197Z,99518.34
2023-01-11T07:10:37.909Z,99509.28
2023-01-11T07:11:19.615Z,99508.44
2023-01-11T07:12:01.288Z,99514.88
2023-01-11T07:12:43.270Z,99525.53
2023-01-11T07:13:24.974Z,99516.63
2023-01-11T07:14:06.705Z,99522.56
2023-01-11T07:14:48.357Z,99524.88
2023-01-11T07:15:30.032Z,99518.44
2023-01-11T07:16:11.706Z,99507.25
2023-01-11T07:16:53.382Z,99523.50
2023-01-11T07:17:35.496Z,99519.88
2023-01-11T07:18:19.069Z,99520.34
2023-01-11T07:19:00.755Z,99527.09
2023-01-11T07:19:42.455Z,99524.09
2023-01-11T07:20:25.204Z,99514.25
2023-01-11T07:21:06.839Z,99528.56
2023-01-11T07:21:48.497Z,99514.41
2023-01-11T07:22:33.692Z,99523.66
2023-01-11T07:23:15.421Z,99498.16
2023-01-11T07:23:57.015Z,99523.47
2023-01-11T07:24:38.662Z,99518.19
2023-01-11T07:25:20.346Z,99521.63
2023-01-11T07:26:02.758Z,99517.16
2023-01-11T07:26:44.387Z,99520.47
2023-01-11T07:27:26.045Z,99513.91
2023-01-11T07:28:08.606Z,99520.28
2023-01-11T07:28:50.254Z,99521.78
2023-01-11T07:29:31.871Z,99521.78
2023-01-11T07:30:13.807Z,99453.06
2023-01-11T07:30:59.179Z,99520.59
2023-01-11T07:31:41.279Z,99515.97
2023-01-11T07:32:22.920Z,99518.41
2023-01-11T07:33:06.369Z,99515.44
2023-01-11T07:33:47.974Z,99498.66
2023-01-11T07:34:29.559Z,99512.78
2023-01-11T07:35:11.168Z,99491.75
2023-01-11T07:35:53.223Z,99513.94
2023-01-11T07:36:39.354Z,99516.41
2023-01-11T07:37:28.920Z,99513.94
2023-01-11T07:38:11.677Z,99512.56
2023-01-11T07:38:53.244Z,99514.19
2023-01-11T07:39:43.382Z,99515.03
2023-01-11T07:40:25.582Z,99509.75
2023-01-11T07:41:27.246Z,99511.25
2023-01-11T07:42:29.702Z,99506.13
2023-01-11T07:43:14.926Z,99501.97
2023-01-11T07:43:56.756Z,99488.94
2023-01-11T07:44:38.377Z,99492.06
2023-01-11T07:45:19.997Z,99502.72
2023-01-11T07:46:01.724Z,99515.69
2023-01-11T07:46:43.605Z,99490.19
2023-01-11T07:47:25.383Z,99499.31
2023-01-11T07:48:10.034Z,99499.03
2023-01-11T07:48:51.730Z,99480.97
2023-01-11T07:49:33.417Z,99510.53
2023-01-11T07:50:15.429Z,99491.09
2023-01-11T07:50:57.194Z,99512.44
2023-01-11T07:51:38.839Z,99438.31
2023-01-11T07:52:20.459Z,99508.94
2023-01-11T07:53:02.090Z,99470.25
2023-01-11T07:53:43.736Z,99505.38
2023-01-11T07:54:25.362Z,99502.75
2023-01-11T07:55:07.241Z,99507.50
2023-01-11T07:55:48.860Z,99498.56
2023-01-11T07:56:31.302Z,99504.41
2023-01-11T07:57:12.911Z,99495.19
2023-01-11T07:57:57.513Z,99505.50
2023-01-11T07:58:39.350Z,99498.94
2023-01-11T07:59:20.967Z,99499.84
2023-01-11T08:00:03.341Z,99504.13
2023-01-11T08:00:53.223Z,99500.50
2023-01-11T08:01:35.000Z,99491.84
2023-01-11T08:02:16.668Z,99502.97
2023-01-11T08:03:00.404Z,99497.84
2023-01-11T08:03:42.155Z,99508.59
2023-01-11T08:04:23.819Z,99491.56
2023-01-11T08:05:05.778Z,99500.59
2023-01-11T08:05:51.625Z,99493.28
2023-01-11T08:06:33.206Z,99503.75
2023-01-11T08:07:14.814Z,99506.41
2023-01-11T08:07:56.471Z,99514.16
2023-01-11T08:08:38.160Z,99493.06
2023-01-11T08:09:20.086Z,99473.13
2023-01-11T08:10:03.140Z,99513.53
2023-01-11T08:10:44.770Z,99506.13
2023-01-11T08:11:45.015Z,99498.75
2023-01-11T08:12:45.402Z,99495.81
2023-01-11T08:13:45.324Z,99516.50
2023-01-11T08:14:39.322Z,99515.25
2023-01-11T08:15:23.523Z,99513.97
2023-01-11T08:16:05.495Z,99518.91
2023-01-11T08:16:49.864Z,99457.13
2023-01-11T08:17:31.657Z,99520.06
2023-01-11T08:18:14.062Z,99515.13
2023-01-11T08:18:55.828Z,99513.00
2023-01-11T08:19:37.663Z,99507.94
2023-01-11T08:20:20.863Z,99519.88
2023-01-11T08:21:02.530Z,99520.88
2023-01-11T08:21:44.460Z,99521.34
2023-01-11T08:22:26.204Z,99524.63
2023-01-11T08:23:09.687Z,99531.53
2023-01-11T08:23:56.479Z,99531.38
2023-01-11T08:24:38.148Z,99512.97
2023-01-11T08:25:19.886Z,99526.09
2023-01-11T08:26:01.640Z,99519.06
2023-01-11T08:26:43.505Z,99511.31
2023-01-11T08:27:25.154Z,99518.16
2023-01-11T08:28:07.595Z,99513.44
2023-01-11T08:28:49.357Z,99531.94
2023-01-11T08:29:31.778Z,99523.09
2023-01-11T08:30:14.238Z,99532.88
2023-01-11T08:30:55.842Z,99511.16
2023-01-11T08:31:37.657Z,99535.78
2023-01-11T08:32:19.282Z,99523.94
2023-01-11T08:33:02.320Z,99536.06
2023-01-11T08:33:43.970Z,99537.53
2023-01-11T08:34:27.446Z,99537.97
2023-01-11T08:35:09.299Z,99534.31
2023-01-11T08:35:50.875Z,99542.06
2023-01-11T08:36:32.576Z,99513.44
2023-01-11T08:37:14.516Z,99529.84
2023-01-11T08:37:56.184Z,99537.06
2023-01-11T08:38:38.252Z,99519.66
2023-01-11T08:39:19.933Z,99528.50
2023-01-11T08:40:01.892Z,99542.38
2023-01-11T08:40:43.531Z,99530.25
2023-01-11T08:41:25.412Z,99532.88
2023-01-11T08:42:07.015Z,99528.59
2023-01-11T08:42:48.715Z,99537.63
2023-01-11T08:43:33.208Z,99521.19
2023-01-11T08:44:22.265Z,99539.91
2023-01-11T08:45:14.683Z,99526.78
2023-01-11T08:45:56.356Z,99504.78
2023-01-11T08:46:38.175Z,99535.25
2023-01-11T08:47:19.881Z,99519.03
2023-01-11T08:48:02.018Z,99519.84
2023-01-11T08:48:43.717Z,99521.38
2023-01-11T08:49:25.319Z,99518.84